Time;durP1;ratioP1;P1;durP2;ratioP2;P2;SDS_P1;SDS_P2;PMS_P1;PMS_P2;Temp;Humidity;BMP_temperature;BMP_pressure;BME280_temperature;BME280_humidity;BME280_pressure;Samples;Min_cycle;Max_cycle;Signal;HPM_P1;HPM_P2
2021/12/17 00:01:09;;;;;;;87.47;36.50;;;2.60;1.00;196.50;224877.00;;;;4943131;29;20218;-87
2021/12/17 00:03:49;;;;;;;71.77;31.97;;;2.60;1.00;196.50;224877.00;;;;4928335;29;20195;-86
2021/12/17 00:08:56;;;;;;;81.67;33.93;;;2.60;5.30;196.50;224877.00;;;;4934622;29;20196;-85
2021/12/17 00:11:24;;;;;;;88.27;35.90;;;2.60;10.70;196.50;224877.00;;;;4926886;29;20286;-86
2021/12/17 00:13:54;;;;;;;87.67;33.03;;;2.60;11.50;196.50;224877.00;;;;4926859;29;20678;-85
2021/12/17 00:16:25;;;;;;;74.73;29.77;;;2.60;11.40;196.50;224877.00;;;;4926454;28;20472;-85
2021/12/17 00:48:50;;;;;;;56.63;24.40;;;2.60;3.40;196.50;224877.00;;;;4940829;29;20606;-86
2021/12/17 00:54:20;;;;;;;62.87;24.73;;;2.60;1.00;196.50;224877.00;;;;4940067;29;20721;-86
2021/12/17 00:56:51;;;;;;;71.87;24.93;;;2.60;1.00;196.50;224877.00;;;;4925416;29;20195;-85
2021/12/17 00:59:20;;;;;;;62.17;24.90;;;2.60;1.00;196.50;224877.00;;;;4925191;29;20202;-85
2021/12/17 01:01:53;;;;;;;78.23;28.10;;;2.60;1.00;196.50;224877.00;;;;4924603;29;20195;-85
2021/12/17 01:04:20;;;;;;;71.47;27.07;;;2.60;1.00;196.50;224877.00;;;;4950112;28;20770;-85
2021/12/17 01:06:48;;;;;;;67.13;24.37;;;2.60;1.00;196.50;224877.00;;;;4938432;29;20211;-85
2021/12/17 01:09:20;;;;;;;64.20;25.10;;;2.60;1.00;196.50;224877.00;;;;4940572;29;20270;-86
2021/12/17 01:11:47;;;;;;;69.87;27.10;;;2.60;1.00;196.50;224877.00;;;;4940495;29;20282;-85
2021/12/17 01:14:15;;;;;;;67.93;26.07;;;2.60;1.00;196.50;224877.00;;;;4924219;29;20195;-86
2021/12/17 01:16:43;;;;;;;61.57;25.40;;;2.60;1.00;196.50;224877.00;;;;4924734;29;20234;-85
2021/12/17 01:19:23;;;;;;;65.50;25.63;;;2.60;1.00;196.50;224877.00;;;;4939308;29;20191;-87
2021/12/17 01:24:39;;;;;;;71.37;25.43;;;2.60;1.00;196.50;224877.00;;;;4956763;28;20190;-86
2021/12/17 01:35:28;;;;;;;56.50;21.83;;;2.60;1.00;196.50;224877.00;;;;4942329;29;20207;-85
2021/12/17 01:43:47;;;;;;;79.23;25.33;;;2.70;1.00;196.50;224877.00;;;;4956769;29;20199;-87
2021/12/17 01:46:24;;;;;;;103.43;26.53;;;2.70;1.00;196.50;224877.00;;;;4938661;28;20187;-85
2021/12/17 02:00:04;;;;;;;91.60;25.00;;;2.70;1.00;196.50;224877.00;;;;4971478;28;20519;-87
2021/12/17 02:02:40;;;;;;;95.77;25.37;;;2.70;1.00;196.50;224877.00;;;;4955115;28;20226;-86
2021/12/17 02:05:11;;;;;;;82.10;24.67;;;2.70;1.00;196.50;224877.00;;;;4971772;28;20253;-86
2021/12/17 02:07:38;;;;;;;82.90;24.70;;;2.70;1.00;196.50;224877.00;;;;4942300;28;20215;-84
2021/12/17 02:21:28;;;;;;;285.50;39.30;;;2.70;1.00;196.50;224877.00;;;;4938575;29;20199;-86
2021/12/17 02:32:12;;;;;;;290.73;34.90;;;2.60;1.00;196.50;224877.00;;;;4922355;29;20207;-86
2021/12/17 02:37:31;;;;;;;612.33;52.33;;;2.60;1.00;196.50;224877.00;;;;4939414;29;20198;-88
2021/12/17 02:47:58;;;;;;;860.97;65.97;;;2.60;1.00;196.50;224877.00;;;;4936785;29;20219;-85
2021/12/17 02:50:27;;;;;;;888.63;65.87;;;2.60;1.00;196.50;224877.00;;;;4936701;29;20680;-85
2021/12/17 02:52:56;;;;;;;520.60;46.70;;;2.60;1.00;196.50;224877.00;;;;4938595;29;20249;-87
2021/12/17 02:55:24;;;;;;;405.80;42.50;;;2.60;1.00;196.50;224877.00;;;;4938018;28;20746;-87
2021/12/17 02:57:51;;;;;;;306.17;35.67;;;2.60;1.00;196.50;224877.00;;;;4937545;29;20203;-87
2021/12/17 03:00:18;;;;;;;348.17;37.27;;;2.60;1.00;196.50;224877.00;;;;4922779;29;20226;-88
2021/12/17 03:02:49;;;;;;;597.83;50.83;;;2.60;1.00;196.50;224877.00;;;;4955519;29;20203;-88
2021/12/17 03:05:17;;;;;;;871.67;59.47;;;2.70;1.00;196.50;224877.00;;;;4937219;29;20206;-86
2021/12/17 03:07:47;;;;;;;629.27;52.47;;;2.60;1.00;196.50;224877.00;;;;4938462;29;20291;-88
2021/12/17 03:10:15;;;;;;;571.50;48.03;;;2.60;1.00;196.50;224877.00;;;;4937494;29;20218;-86
2021/12/17 03:12:51;;;;;;;579.47;45.27;;;2.60;1.00;196.50;224877.00;;;;4936669;29;20223;-85
2021/12/17 03:23:40;;;;;;;471.40;39.13;;;2.60;1.00;196.50;224877.00;;;;4937519;29;20199;-87
2021/12/17 03:26:08;;;;;;;689.03;53.10;;;2.60;1.00;196.50;224877.00;;;;4937583;28;20206;-87
2021/12/17 03:28:40;;;;;;;749.17;56.23;;;2.60;1.00;196.50;224877.00;;;;4925562;28;20275;-87
2021/12/17 03:31:09;;;;;;;816.43;59.30;;;2.60;1.00;196.50;224877.00;;;;4924602;29;20688;-87
2021/12/17 03:33:43;;;;;;;774.13;52.17;;;2.60;1.00;196.50;224877.00;;;;4925410;29;20652;-88
2021/12/17 03:36:17;;;;;;;955.53;61.93;;;2.60;1.00;196.50;224877.00;;;;4940548;29;20202;-87
2021/12/17 03:38:48;;;;;;;1291.77;82.50;;;2.60;1.00;196.50;224877.00;;;;4940827;29;20681;-85
2021/12/17 03:41:24;;;;;;;1067.03;67.20;;;2.60;1.00;196.50;224877.00;;;;4924031;29;20231;-86
2021/12/17 03:43:54;;;;;;;1235.10;81.20;;;2.60;1.00;196.50;224877.00;;;;4940449;29;20685;-86
2021/12/17 03:46:22;;;;;;;1458.73;84.93;;;2.60;1.00;196.50;224877.00;;;;4940524;29;20206;-87
2021/12/17 03:48:50;;;;;;;1010.37;62.93;;;2.60;1.00;196.50;224877.00;;;;4941263;29;20305;-88
2021/12/17 03:51:19;;;;;;;1437.40;90.03;;;2.60;1.00;196.50;224877.00;;;;4949370;29;20285;-86
2021/12/17 03:53:56;;;;;;;951.73;65.97;;;2.60;1.00;196.50;224877.00;;;;4940760;29;20254;-86
2021/12/17 03:56:26;;;;;;;1378.07;83.53;;;2.60;1.00;196.50;224877.00;;;;4924204;29;20278;-87
2021/12/17 03:58:57;;;;;;;1478.77;85.83;;;2.60;1.00;196.50;224877.00;;;;4925552;29;20309;-88
2021/12/17 04:01:26;;;;;;;1202.40;73.37;;;2.60;1.00;196.50;224877.00;;;;4941358;29;20207;-87
2021/12/17 04:03:53;;;;;;;1602.33;94.93;;;2.60;1.00;196.50;224877.00;;;;4925272;29;20278;-88
2021/12/17 04:06:21;;;;;;;1707.77;97.40;;;2.60;1.00;196.50;224877.00;;;;4925260;29;20685;-87
2021/12/17 04:08:48;;;;;;;1598.87;91.63;;;2.60;1.00;196.50;224877.00;;;;4940695;29;20279;-87
2021/12/17 04:11:19;;;;;;;1269.17;79.57;;;2.60;1.00;196.50;224877.00;;;;4940115;29;20199;-87
2021/12/17 04:13:53;;;;;;;1164.60;68.90;;;2.60;1.00;196.50;224877.00;;;;4933268;29;20237;-87
2021/12/17 04:16:25;;;;;;;1296.47;83.63;;;2.60;1.00;196.50;224877.00;;;;4940649;29;20226;-87
2021/12/17 04:18:53;;;;;;;1409.37;85.70;;;2.60;1.00;196.50;224877.00;;;;4940609;29;20183;-86
2021/12/17 04:21:21;;;;;;;1050.83;67.03;;;2.60;1.00;196.50;224877.00;;;;4957708;29;20203;-87
2021/12/17 04:23:52;;;;;;;1329.23;76.07;;;2.60;1.00;196.50;224877.00;;;;4941018;29;20659;-88
2021/12/17 04:26:21;;;;;;;1388.77;82.20;;;2.60;1.00;196.50;224877.00;;;;4924655;29;20199;-88
2021/12/17 04:28:51;;;;;;;1571.80;92.47;;;2.60;1.00;196.50;224877.00;;;;4940236;29;20261;-88
2021/12/17 04:31:27;;;;;;;1609.57;97.90;;;2.60;1.00;196.50;224877.00;;;;4955879;28;20196;-87
2021/12/17 04:33:55;;;;;;;1769.03;98.40;;;2.60;1.00;196.50;224877.00;;;;4923394;29;20238;-88
2021/12/17 04:36:27;;;;;;;1410.87;88.07;;;2.60;1.00;196.50;224877.00;;;;4940082;28;20199;-87
2021/12/17 04:38:55;;;;;;;1363.17;82.93;;;2.50;1.00;196.50;224877.00;;;;4939698;29;20674;-90
2021/12/17 04:41:40;;;;;;;1417.20;85.03;;;2.50;1.00;196.50;224877.00;;;;4940058;28;20229;-87
2021/12/17 04:44:26;;;;;;;1664.40;98.47;;;2.50;1.00;196.50;224877.00;;;;4939125;29;20682;-88
2021/12/17 04:57:40;;;;;;;1679.93;98.63;;;2.50;1.00;196.50;224877.00;;;;4938557;29;20203;-87
2021/12/17 05:00:22;;;;;;;1555.97;95.17;;;2.50;1.00;196.50;224877.00;;;;4940711;29;20210;-89
2021/12/17 05:02:54;;;;;;;467.60;37.00;;;2.50;1.00;196.50;224877.00;;;;4931357;29;20286;-87
2021/12/17 05:05:28;;;;;;;1097.57;71.13;;;2.50;1.00;196.50;224877.00;;;;4923919;28;20720;-87
2021/12/17 05:08:06;;;;;;;854.77;56.87;;;2.50;1.00;196.50;224877.00;;;;4938340;28;20246;-86
2021/12/17 05:18:58;;;;;;;1522.50;94.00;;;2.50;1.00;196.50;224877.00;;;;4939525;29;20254;-87
2021/12/17 05:21:25;;;;;;;193.30;26.50;;;2.50;1.00;196.50;224877.00;;;;4924529;29;20250;-86
2021/12/17 05:23:53;;;;;;;517.17;45.37;;;2.50;1.00;196.50;224877.00;;;;4940405;29;20218;-86
2021/12/17 05:26:22;;;;;;;393.57;38.00;;;2.50;1.00;196.50;224877.00;;;;4908064;29;20553;-87
2021/12/17 05:28:51;;;;;;;35.30;16.00;;;2.50;1.00;196.50;224877.00;;;;4923199;28;20314;-86
2021/12/17 05:31:22;;;;;;;33.83;15.90;;;2.50;1.00;196.50;224877.00;;;;4924009;29;20188;-86
2021/12/17 05:33:54;;;;;;;17.77;11.23;;;2.40;1.00;196.50;224877.00;;;;4940107;29;20246;-87
2021/12/17 05:36:21;;;;;;;23.30;13.67;;;2.40;1.00;196.50;224877.00;;;;4924387;29;20697;-86
2021/12/17 05:38:48;;;;;;;31.57;15.90;;;2.40;1.00;196.50;224877.00;;;;4939342;29;20598;-85
2021/12/17 05:41:15;;;;;;;31.73;17.63;;;2.40;1.00;196.50;224877.00;;;;4940033;29;20301;-88
2021/12/17 05:43:43;;;;;;;29.77;17.83;;;2.40;1.00;196.50;224877.00;;;;4939494;29;20262;-87
2021/12/17 05:46:12;;;;;;;32.20;17.90;;;2.30;1.00;196.50;224877.00;;;;4939078;29;20210;-86
2021/12/17 05:48:40;;;;;;;32.27;16.57;;;2.30;1.00;196.50;224877.00;;;;4923110;29;20219;-85
2021/12/17 05:51:10;;;;;;;33.90;17.13;;;2.30;1.00;196.50;224877.00;;;;4954451;28;20207;-85
2021/12/17 05:53:38;;;;;;;116.87;28.07;;;2.30;1.00;196.50;224877.00;;;;4956096;29;20639;-86
2021/12/17 05:56:05;;;;;;;43.50;18.80;;;2.30;1.00;196.50;224877.00;;;;4923596;29;20183;-84
2021/12/17 05:58:32;;;;;;;29.97;15.73;;;2.30;1.00;196.50;224877.00;;;;4939646;29;20210;-86
2021/12/17 06:00:59;;;;;;;37.43;16.27;;;2.40;1.00;196.50;224877.00;;;;4938694;29;20670;-88
2021/12/17 06:03:28;;;;;;;24.50;14.43;;;2.30;1.00;196.50;224877.00;;;;4923179;29;20230;-89
2021/12/17 06:05:55;;;;;;;29.13;15.80;;;2.40;1.00;196.50;224877.00;;;;4923303;29;20213;-90
2021/12/17 06:08:22;;;;;;;31.03;17.77;;;2.30;1.00;196.50;224877.00;;;;4922800;29;20214;-87
2021/12/17 06:10:49;;;;;;;165.93;27.37;;;2.30;1.00;196.50;224877.00;;;;4924247;29;20199;-88
2021/12/17 06:13:16;;;;;;;30.33;15.03;;;2.30;1.00;196.50;224877.00;;;;4939788;28;20207;-90
2021/12/17 06:15:43;;;;;;;23.13;13.00;;;2.30;1.00;196.50;224877.00;;;;4939662;29;20606;-91
2021/12/17 06:18:10;;;;;;;26.90;15.50;;;2.30;1.00;196.50;224877.00;;;;4941631;29;20678;-87
2021/12/17 06:20:40;;;;;;;31.27;16.73;;;2.20;1.00;196.50;224877.00;;;;4925277;29;20209;-88
2021/12/17 06:23:07;;;;;;;26.77;15.97;;;2.20;1.00;196.50;224877.00;;;;4922645;29;20203;-87
2021/12/17 06:25:34;;;;;;;34.87;15.93;;;2.20;1.00;196.50;224877.00;;;;4940727;29;20647;-90
2021/12/17 06:28:01;;;;;;;25.83;13.40;;;2.20;1.00;196.50;224877.00;;;;4940102;29;20360;-90
2021/12/17 06:30:28;;;;;;;26.83;15.23;;;2.20;1.00;196.50;224877.00;;;;4939416;29;20666;-88
2021/12/17 06:32:58;;;;;;;27.63;15.57;;;2.20;1.00;196.50;224877.00;;;;4923315;29;20198;-87
2021/12/17 06:35:25;;;;;;;28.93;13.97;;;2.20;1.00;196.50;224877.00;;;;4939240;29;20235;-88
2021/12/17 06:37:52;;;;;;;32.40;14.80;;;2.20;1.00;196.50;224877.00;;;;4923592;29;20674;-87
2021/12/17 06:40:19;;;;;;;21.87;12.27;;;2.20;1.00;196.50;224877.00;;;;4924043;29;20266;-89
2021/12/17 06:42:46;;;;;;;16.60;11.83;;;2.20;1.00;196.50;224877.00;;;;4940643;29;20242;-89
2021/12/17 06:45:23;;;;;;;24.13;12.60;;;2.10;1.00;196.50;224877.00;;;;4923222;29;20219;-88
2021/12/17 06:47:58;;;;;;;20.87;12.60;;;2.10;1.00;196.50;224877.00;;;;4923237;29;20235;-87
2021/12/17 06:56:42;;;;;;;24.20;15.13;;;2.00;1.00;196.50;224877.00;;;;4944725;29;20234;-87
2021/12/17 06:59:01;;;;;;;21.23;13.93;;;1.90;1.00;196.50;224877.00;;;;4937885;29;20198;-89
2021/12/17 07:17:34;;;;;;;19.93;14.57;;;1.90;1.00;196.50;224877.00;;;;4937930;29;20293;-89
2021/12/17 07:32:51;;;;;;;18.80;12.63;;;1.90;1.00;196.50;224877.00;;;;4946061;29;20591;-89
2021/12/17 07:40:37;;;;;;;21.87;13.63;;;1.90;1.00;196.50;224877.00;;;;4953609;29;20238;-87
2021/12/17 07:43:12;;;;;;;26.07;15.03;;;1.90;1.00;196.50;224877.00;;;;4936762;28;20206;-86
2021/12/17 07:45:42;;;;;;;23.03;13.63;;;1.90;1.00;196.50;224877.00;;;;4937028;29;20199;-88
2021/12/17 07:48:09;;;;;;;25.23;14.67;;;1.90;1.00;196.50;224877.00;;;;4935932;29;20295;-87
2021/12/17 07:50:36;;;;;;;23.87;14.73;;;1.90;1.00;196.50;224877.00;;;;4921152;29;20602;-86
2021/12/17 07:53:03;;;;;;;23.03;13.87;;;1.90;1.00;196.50;224877.00;;;;4921572;29;20567;-88
2021/12/17 07:55:34;;;;;;;21.67;13.73;;;1.90;1.00;196.50;224877.00;;;;4937145;29;20210;-88
2021/12/17 08:00:37;;;;;;;18.33;12.70;;;2.00;1.00;196.50;224877.00;;;;5129251;23;20319;-89
2021/12/17 08:03:05;;;;;;;21.77;13.70;;;2.00;1.00;196.50;224877.00;;;;4910096;29;20567;-89
2021/12/17 08:05:32;;;;;;;20.23;13.23;;;2.00;1.00;196.50;224877.00;;;;4929910;29;20203;-90
2021/12/17 08:07:59;;;;;;;18.63;13.20;;;2.00;1.00;196.50;224877.00;;;;4961119;28;20655;-90
2021/12/17 08:10:26;;;;;;;19.97;13.60;;;2.00;1.00;196.50;224877.00;;;;4931057;29;20235;-90
2021/12/17 08:12:55;;;;;;;20.80;13.53;;;2.00;1.00;196.50;224877.00;;;;4931444;29;20203;-89
2021/12/17 08:15:28;;;;;;;17.40;12.90;;;2.10;1.00;196.50;224877.00;;;;4947779;29;20238;-87
2021/12/17 08:24:22;;;;;;;19.60;13.93;;;2.10;99.90;196.50;224877.00;;;;4948730;29;20216;-85
2021/12/17 08:29:24;;;;;;;15.17;11.20;;;2.30;1.00;196.50;224877.00;;;;4950298;29;20297;-88
2021/12/17 08:31:53;;;;;;;14.23;11.10;;;2.30;1.00;196.50;224877.00;;;;4947374;29;20200;-86
2021/12/17 08:34:21;;;;;;;15.63;11.80;;;2.30;99.90;196.50;224877.00;;;;4946884;29;20225;-86
2021/12/17 08:36:49;;;;;;;16.90;11.17;;;2.20;99.90;196.50;224877.00;;;;4932046;29;20231;-87
2021/12/17 08:39:18;;;;;;;13.70;10.13;;;2.20;99.90;196.50;224877.00;;;;4930913;29;20207;-85
2021/12/17 08:41:49;;;;;;;15.97;11.37;;;2.30;99.90;196.50;224877.00;;;;4947939;29;20203;-85
2021/12/17 08:44:17;;;;;;;12.63;10.37;;;2.40;99.90;196.50;224877.00;;;;4945828;29;20206;-86
2021/12/17 08:46:44;;;;;;;14.63;9.93;;;2.40;99.90;196.50;224877.00;;;;4929867;29;20200;-86
2021/12/17 08:49:11;;;;;;;12.83;9.53;;;2.40;99.90;196.50;224877.00;;;;4931763;29;20229;-86
2021/12/17 08:51:41;;;;;;;14.60;10.67;;;2.50;99.90;196.50;224877.00;;;;4947707;29;20612;-85
2021/12/17 08:54:09;;;;;;;16.50;11.07;;;2.50;99.90;196.50;224877.00;;;;4931701;29;20725;-87
2021/12/17 08:56:43;;;;;;;14.73;10.47;;;2.50;99.90;196.50;224877.00;;;;4930339;29;20242;-86
2021/12/17 08:59:14;;;;;;;13.37;10.10;;;2.60;99.90;196.50;224877.00;;;;4940424;29;20760;-85
2021/12/17 09:01:41;;;;;;;11.47;9.13;;;2.60;99.90;196.50;224877.00;;;;4918816;29;20734;-87
2021/12/17 09:04:09;;;;;;;11.67;8.80;;;2.70;99.90;196.50;224877.00;;;;4934186;29;20196;-86
2021/12/17 09:06:36;;;;;;;10.83;9.10;;;2.70;1.00;196.50;224877.00;;;;4926517;29;20268;-87
2021/12/17 09:09:05;;;;;;;11.00;9.20;;;2.70;1.00;196.50;224877.00;;;;4925593;29;20224;-87
2021/12/17 09:11:38;;;;;;;10.67;8.70;;;2.70;1.00;196.50;224877.00;;;;4926479;29;20204;-87
2021/12/17 09:14:06;;;;;;;9.93;8.10;;;2.80;1.00;196.50;224877.00;;;;4944191;29;20302;-86
2021/12/17 09:16:34;;;;;;;10.00;8.43;;;2.80;1.00;196.50;224877.00;;;;4926468;29;20197;-88
2021/12/17 09:19:05;;;;;;;10.67;8.43;;;2.90;1.00;196.50;224877.00;;;;4924509;29;20743;-89
2021/12/17 09:21:33;;;;;;;13.10;8.50;;;2.90;99.90;196.50;224877.00;;;;4934802;29;20664;-88
2021/12/17 09:24:00;;;;;;;13.47;9.13;;;2.80;99.90;196.50;224877.00;;;;4928122;29;20264;-90
2021/12/17 09:26:27;;;;;;;11.70;8.57;;;2.70;99.90;196.50;224877.00;;;;4933936;29;20234;-88
2021/12/17 09:28:54;;;;;;;13.30;9.60;;;2.50;99.90;196.50;224877.00;;;;4926029;29;20220;-89
2021/12/17 09:31:22;;;;;;;12.83;9.50;;;2.50;99.90;196.50;224877.00;;;;4943085;29;20183;-88
2021/12/17 09:33:50;;;;;;;12.10;9.50;;;2.50;99.90;196.50;224877.00;;;;4927936;29;20192;-89
2021/12/17 09:36:22;;;;;;;14.33;9.50;;;2.50;99.90;196.50;224877.00;;;;4941434;29;20690;-88
2021/12/17 09:38:52;;;;;;;11.63;9.27;;;2.60;99.90;196.50;224877.00;;;;4935610;29;20734;-88
2021/12/17 09:41:24;;;;;;;10.30;8.97;;;2.80;99.90;196.50;224877.00;;;;4933936;29;20674;-87
2021/12/17 09:43:51;;;;;;;12.43;9.63;;;2.90;99.90;196.50;224877.00;;;;4934812;29;20215;-87
2021/12/17 09:46:18;;;;;;;11.43;9.27;;;3.00;99.90;196.50;224877.00;;;;4924683;29;20248;-87
2021/12/17 09:48:48;;;;;;;11.60;8.53;;;3.30;99.90;196.50;224877.00;;;;4926959;29;20244;-86
2021/12/17 09:51:19;;;;;;;10.83;7.90;;;3.60;99.90;196.50;224877.00;;;;4926313;29;20196;-86
2021/12/17 09:53:48;;;;;;;10.53;7.63;;;3.90;1.00;196.50;224877.00;;;;4927691;29;20605;-85
2021/12/17 09:56:16;;;;;;;10.33;7.87;;;3.90;1.00;196.50;224877.00;;;;4929192;29;20208;-85
2021/12/17 09:58:43;;;;;;;10.67;8.20;;;4.20;1.00;196.50;224877.00;;;;4940892;29;20698;-86
2021/12/17 10:01:11;;;;;;;9.57;6.70;;;4.80;99.90;196.50;224877.00;;;;4925930;29;20226;-86
2021/12/17 10:03:40;;;;;;;9.20;7.27;;;5.40;99.90;196.50;224877.00;;;;4926381;29;20199;-91
2021/12/17 10:06:22;;;;;;;7.90;6.73;;;5.90;1.00;196.50;224877.00;;;;4911392;29;20290;-88
2021/12/17 10:08:50;;;;;;;8.87;6.43;;;6.40;99.90;196.50;224877.00;;;;4933439;29;20741;-88
2021/12/17 10:11:20;;;;;;;7.50;6.37;;;6.90;99.90;196.50;224877.00;;;;4935068;29;20196;-86
2021/12/17 10:13:48;;;;;;;6.83;5.97;;;7.10;1.00;196.50;224877.00;;;;4941070;29;20231;-86
2021/12/17 10:16:20;;;;;;;6.20;5.60;;;7.30;57.10;196.50;224877.00;;;;4927018;29;20299;-85
2021/12/17 10:18:50;;;;;;;5.32;4.82;;;7.80;1.00;196.50;224877.00;;;;4942888;29;20208;-86
2021/12/17 10:21:24;;;;;;;6.15;5.03;;;8.00;99.90;196.50;224877.00;;;;4926423;29;20251;-86
2021/12/17 10:23:56;;;;;;;5.15;4.60;;;8.40;99.90;196.50;224877.00;;;;4942651;29;20199;-87
2021/12/17 10:26:25;;;;;;;6.05;5.15;;;8.90;1.00;196.50;224877.00;;;;4941300;29;20196;-87
2021/12/17 10:28:59;;;;;;;5.65;4.97;;;9.30;99.90;196.50;224877.00;;;;4934244;29;20220;-88
2021/12/17 10:31:30;;;;;;;4.50;4.10;;;9.70;1.00;196.50;224877.00;;;;4941035;29;20680;-89
2021/12/17 10:34:00;;;;;;;5.30;4.53;;;10.20;1.00;196.50;224877.00;;;;4929768;29;20215;-88
2021/12/17 10:36:37;;;;;;;5.20;4.70;;;10.50;99.90;196.50;224877.00;;;;4918652;29;20232;-88
2021/12/17 10:39:30;;;;;;;6.72;5.07;;;11.00;99.90;196.50;224877.00;;;;4927810;29;20263;-88
2021/12/17 10:41:58;;;;;;;4.85;4.35;;;11.50;1.00;196.50;224877.00;;;;4925976;29;20696;-89
2021/12/17 10:44:27;;;;;;;4.85;4.18;;;11.90;1.00;196.50;224877.00;;;;4927082;29;20541;-89
2021/12/17 10:47:14;;;;;;;4.88;4.30;;;12.30;1.00;196.50;224877.00;;;;4935245;29;20204;-89
2021/12/17 10:49:57;;;;;;;4.95;4.45;;;12.50;1.00;196.50;224877.00;;;;4943857;28;20204;-90
2021/12/17 10:52:33;;;;;;;4.95;4.45;;;12.70;1.00;196.50;224877.00;;;;4926262;29;20705;-89
2021/12/17 10:55:14;;;;;;;5.60;5.10;;;13.00;1.00;196.50;224877.00;;;;4933656;29;20262;-89
2021/12/17 10:57:43;;;;;;;7.57;5.13;;;13.10;99.90;196.50;224877.00;;;;4912677;29;20667;-89
2021/12/17 11:00:12;;;;;;;5.28;4.78;;;13.00;99.90;196.50;224877.00;;;;4941785;29;20230;-88
2021/12/17 11:02:49;;;;;;;4.53;4.13;;;12.90;1.00;196.50;224877.00;;;;4924731;29;20204;-88
2021/12/17 11:05:17;;;;;;;5.47;4.97;;;12.90;99.90;196.50;224877.00;;;;4933095;29;20196;-89
2021/12/17 11:07:50;;;;;;;6.13;5.43;;;12.70;99.90;196.50;224877.00;;;;4925697;29;20952;-87
2021/12/17 11:10:31;;;;;;;6.07;4.68;;;12.50;99.90;196.50;224877.00;;;;4924162;29;20223;-86
2021/12/17 11:12:58;;;;;;;5.60;5.00;;;12.40;1.00;196.50;224877.00;;;;4928159;29;20231;-89
2021/12/17 11:15:30;;;;;;;6.80;6.10;;;12.30;1.00;196.50;224877.00;;;;4926625;29;20234;-89
2021/12/17 11:18:03;;;;;;;6.88;5.07;;;12.40;1.00;196.50;224877.00;;;;4929772;29;20203;-88
2021/12/17 11:20:39;;;;;;;5.82;5.22;;;12.30;99.90;196.50;224877.00;;;;4910732;29;20264;-87
2021/12/17 11:23:16;;;;;;;5.60;5.00;;;12.30;1.00;196.50;224877.00;;;;4941322;29;20546;-89
2021/12/17 11:25:50;;;;;;;5.32;4.82;;;12.30;1.00;196.50;224877.00;;;;4934327;29;20557;-88
2021/12/17 11:28:17;;;;;;;6.65;5.28;;;12.40;1.00;196.50;224877.00;;;;4928531;29;20223;-89
2021/12/17 11:30:47;;;;;;;5.85;4.80;;;12.80;99.90;196.50;224877.00;;;;4927514;29;20231;-88
2021/12/17 11:33:14;;;;;;;5.70;5.15;;;13.10;99.90;196.50;224877.00;;;;4926735;29;20204;-88
2021/12/17 11:35:46;;;;;;;6.82;5.38;;;13.20;99.90;196.50;224877.00;;;;4924007;29;20184;-89
2021/12/17 11:38:24;;;;;;;7.85;5.68;;;13.30;99.90;196.50;224877.00;;;;4924644;29;20193;-88
2021/12/17 11:41:06;;;;;;;6.47;5.53;;;13.10;99.90;196.50;224877.00;;;;4923882;29;20195;-88
2021/12/17 11:43:57;;;;;;;6.20;4.60;;;12.70;99.90;196.50;224877.00;;;;4924307;29;20195;-88
2021/12/17 11:46:32;;;;;;;6.63;5.75;;;12.80;99.90;196.50;224877.00;;;;4943149;29;20204;-87
2021/12/17 11:49:07;;;;;;;6.53;5.47;;;12.40;99.90;196.50;224877.00;;;;4936085;29;20280;-88
2021/12/17 11:51:36;;;;;;;6.35;5.38;;;12.30;99.90;196.50;224877.00;;;;4927559;29;20211;-88
2021/12/17 11:54:14;;;;;;;5.60;5.00;;;12.10;1.00;196.50;224877.00;;;;4927214;29;20193;-89
2021/12/17 11:57:04;;;;;;;7.00;5.20;;;12.00;1.00;196.50;224877.00;;;;4930704;29;20202;-89
2021/12/17 11:59:41;;;;;;;7.35;5.40;;;12.00;1.00;196.50;224877.00;;;;4929588;29;20236;-90
2021/12/17 12:02:19;;;;;;;6.10;5.07;;;12.00;1.00;196.50;224877.00;;;;4937701;29;20215;-89
2021/12/17 12:04:58;;;;;;;6.00;5.40;;;12.10;1.00;196.50;224877.00;;;;4926584;29;20200;-89
2021/12/17 12:07:25;;;;;;;5.45;4.95;;;12.00;1.00;196.50;224877.00;;;;4937211;29;20200;-90
2021/12/17 12:10:21;;;;;;;6.75;5.00;;;12.00;1.00;196.50;224877.00;;;;4928131;29;20575;-87
2021/12/17 12:12:50;;;;;;;5.97;5.03;;;11.80;1.00;196.50;224877.00;;;;4910216;29;20271;-89
2021/12/17 12:15:17;;;;;;;6.90;5.95;;;12.10;1.00;196.50;224877.00;;;;4927858;29;20202;-88
2021/12/17 12:18:06;;;;;;;6.57;5.80;;;11.90;1.00;196.50;224877.00;;;;4929466;29;20214;-88
2021/12/17 12:20:57;;;;;;;6.93;6.22;;;11.90;1.00;196.50;224877.00;;;;4946479;29;20239;-88
2021/12/17 12:23:28;;;;;;;7.38;5.40;;;11.60;1.00;196.50;224877.00;;;;4935920;29;20284;-88
2021/12/17 12:26:04;;;;;;;6.25;5.63;;;11.60;1.00;196.50;224877.00;;;;4943329;29;20659;-88
2021/12/17 12:28:49;;;;;;;6.15;5.20;;;11.70;1.00;196.50;224877.00;;;;4927522;29;20196;-86
2021/12/17 12:31:25;;;;;;;7.10;6.40;;;12.20;1.00;196.50;224877.00;;;;4943419;29;20203;-88
2021/12/17 12:34:01;;;;;;;6.93;6.13;;;12.10;1.00;196.50;224877.00;;;;4928860;29;20199;-87
2021/12/17 12:36:53;;;;;;;7.70;6.03;;;12.20;1.00;196.50;224877.00;;;;4928609;29;20239;-87
2021/12/17 12:39:56;;;;;;;6.70;6.00;;;12.40;1.00;196.50;224877.00;;;;4927293;29;20295;-88
2021/12/17 12:42:32;;;;;;;6.93;6.03;;;12.80;99.90;196.50;224877.00;;;;4912742;29;20208;-88
2021/12/17 12:44:59;;;;;;;7.60;5.03;;;12.90;99.90;196.50;224877.00;;;;4912026;29;20703;-89
2021/12/17 12:47:29;;;;;;;5.70;5.05;;;12.90;99.90;196.50;224877.00;;;;4931631;29;20193;-90
2021/12/17 12:50:18;;;;;;;5.88;5.28;;;12.90;99.90;196.50;224877.00;;;;4932131;29;20231;-87
2021/12/17 12:52:59;;;;;;;6.55;5.90;;;13.30;99.90;196.50;224877.00;;;;4929711;29;20295;-88
2021/12/17 12:55:40;;;;;;;7.32;5.88;;;13.00;99.90;196.50;224877.00;;;;4910032;29;20209;-90
2021/12/17 12:58:15;;;;;;;5.63;5.10;;;12.80;99.90;196.50;224877.00;;;;4929127;29;20213;-87
2021/12/17 13:00:58;;;;;;;7.80;6.32;;;13.20;99.90;196.50;224877.00;;;;4934246;29;20338;-87
2021/12/17 13:03:34;;;;;;;6.72;6.03;;;13.40;99.90;196.50;224877.00;;;;4928610;29;20235;-87
2021/12/17 13:06:02;;;;;;;7.68;6.38;;;13.60;99.90;196.50;224877.00;;;;4927659;29;20207;-86
2021/12/17 13:08:31;;;;;;;8.43;6.30;;;13.70;99.90;196.50;224877.00;;;;4935001;29;20204;-88
2021/12/17 13:11:06;;;;;;;7.22;6.15;;;13.60;99.90;196.50;224877.00;;;;4926504;29;20216;-88
2021/12/17 13:16:24;;;;;;;6.95;6.25;;;13.10;99.90;196.50;224877.00;;;;4930226;29;20221;-90
2021/12/17 13:24:25;;;;;;;7.30;6.43;;;12.10;99.90;196.50;224877.00;;;;4935475;29;20221;-91
2021/12/17 13:27:20;;;;;;;8.20;7.13;;;11.90;99.90;196.50;224877.00;;;;4944283;29;20227;-91
2021/12/17 13:29:47;;;;;;;7.28;6.22;;;11.60;1.00;196.50;224877.00;;;;4913559;29;20270;-92
2021/12/17 13:32:17;;;;;;;6.82;5.75;;;11.50;1.00;196.50;224877.00;;;;4943973;29;20200;-90
2021/12/17 13:34:56;;;;;;;7.07;6.15;;;11.40;1.00;196.50;224877.00;;;;4929328;29;20257;-91
2021/12/17 13:37:26;;;;;;;7.55;6.65;;;11.50;1.00;196.50;224877.00;;;;4944641;29;20192;-91
2021/12/17 13:40:10;;;;;;;7.38;6.22;;;11.30;1.00;196.50;224877.00;;;;4928072;29;20214;-91
2021/12/17 13:42:44;;;;;;;7.13;6.15;;;11.10;1.00;196.50;224877.00;;;;4937343;29;20310;-90
2021/12/17 13:45:21;;;;;;;7.80;6.35;;;10.60;1.00;196.50;224877.00;;;;4930422;29;20222;-91
2021/12/17 13:47:57;;;;;;;9.20;6.43;;;10.00;16.30;196.50;224877.00;;;;4930612;29;20207;-92
2021/12/17 13:50:45;;;;;;;7.57;6.47;;;9.10;99.90;196.50;224877.00;;;;4914347;29;20698;-91
2021/12/17 13:54:00;;;;;;;7.40;6.65;;;8.40;1.00;196.50;224877.00;;;;4946106;29;20242;-91
2021/12/17 13:57:36;;;;;;;8.25;6.68;;;8.10;1.00;196.50;224877.00;;;;4939307;29;20286;-92
2021/12/17 14:00:31;;;;;;;9.52;7.05;;;7.30;99.90;196.50;224877.00;;;;4933193;29;20230;-88
2021/12/17 14:03:00;;;;;;;9.30;7.50;;;6.60;99.90;196.50;224877.00;;;;4919321;29;20260;-92